createdAt,value
2018-08-19T00:00:51.186Z,26.00
2018-08-19T00:03:20.145Z,26.00
2018-08-19T00:05:48.906Z,25.80
2018-08-19T00:08:17.895Z,25.90
2018-08-19T00:10:57.625Z,25.80
2018-08-19T00:13:26.938Z,25.90
2018-08-19T00:15:55.959Z,25.60
2018-08-19T00:18:25.026Z,25.50
2018-08-19T00:20:53.935Z,25.40
2018-08-19T00:23:22.588Z,25.50
2018-08-19T00:25:51.432Z,25.20
2018-08-19T00:28:20.894Z,25.20
2018-08-19T00:30:50.092Z,25.30
2018-08-19T00:33:19.130Z,25.20
2018-08-19T00:35:47.902Z,25.40
2018-08-19T00:38:16.764Z,25.40
2018-08-19T00:40:45.553Z,25.40
2018-08-19T00:43:14.460Z,25.40
2018-08-19T00:45:43.555Z,25.50
2018-08-19T00:48:13.039Z,25.40
2018-08-19T00:50:42.100Z,25.40
2018-08-19T00:53:12.080Z,25.60
2018-08-19T00:55:46.168Z,25.60
2018-08-19T00:58:17.969Z,25.60
2018-08-19T01:00:47.155Z,25.60
2018-08-19T01:03:16.114Z,25.60
2018-08-19T01:05:45.003Z,25.40
2018-08-19T01:08:14.555Z,25.30
2018-08-19T01:10:43.738Z,25.10
2018-08-19T01:13:13.417Z,25.10
2018-08-19T01:15:42.273Z,25.00
2018-08-19T01:18:11.219Z,25.10
2018-08-19T01:20:40.181Z,25.20
2018-08-19T01:23:09.070Z,25.30
2018-08-19T01:25:37.794Z,25.20
2018-08-19T01:28:06.759Z,25.40
2018-08-19T01:30:35.775Z,25.40
2018-08-19T01:33:04.555Z,25.40
2018-08-19T01:35:39.977Z,25.50
2018-08-19T01:38:08.892Z,25.30
2018-08-19T01:40:37.654Z,25.20
2018-08-19T01:43:06.971Z,25.20
2018-08-19T01:45:35.997Z,25.40
2018-08-19T01:48:05.021Z,25.30
2018-08-19T01:50:33.974Z,25.40
2018-08-19T01:53:02.635Z,25.30
2018-08-19T01:55:31.540Z,25.00
2018-08-19T01:58:00.790Z,24.90
2018-08-19T02:00:29.637Z,24.90
2018-08-19T02:03:04.760Z,24.90
2018-08-19T02:05:33.460Z,25.00
2018-08-19T02:08:03.149Z,25.00
2018-08-19T02:10:33.116Z,25.00
2018-08-19T02:13:02.248Z,25.00
2018-08-19T02:15:32.002Z,24.90
2018-08-19T02:18:03.985Z,24.70
2018-08-19T02:20:41.417Z,24.80
2018-08-19T02:23:12.278Z,24.90
2018-08-19T02:25:44.930Z,24.90
2018-08-19T02:28:16.279Z,24.90
2018-08-19T02:30:51.407Z,24.90
2018-08-19T02:33:20.948Z,24.70
2018-08-19T02:35:56.765Z,24.80
2018-08-19T02:38:25.554Z,24.70
2018-08-19T02:40:54.604Z,24.70
2018-08-19T02:44:05.712Z,24.80
2018-08-19T02:46:34.680Z,24.80
2018-08-19T02:49:03.577Z,24.80
2018-08-19T02:51:32.410Z,24.70
2018-08-19T02:54:01.228Z,24.80
2018-08-19T02:56:29.916Z,24.70
2018-08-19T02:58:58.961Z,24.70
2018-08-19T03:01:27.750Z,24.70
2018-08-19T03:03:56.487Z,24.60
2018-08-19T03:06:25.243Z,24.70
2018-08-19T03:08:59.172Z,24.60
2018-08-19T03:11:28.208Z,24.60
2018-08-19T03:13:57.524Z,24.50
2018-08-19T03:16:26.308Z,24.50
2018-08-19T03:18:54.952Z,24.50
2018-08-19T03:21:23.709Z,24.40
2018-08-19T03:23:53.663Z,24.50
2018-08-19T03:26:22.283Z,24.40
2018-08-19T03:28:51.115Z,24.40
2018-08-19T03:31:20.166Z,24.60
2018-08-19T03:33:49.110Z,24.60
2018-08-19T03:36:17.610Z,24.60
2018-08-19T03:38:46.395Z,24.70
2018-08-19T03:41:15.418Z,24.80
2018-08-19T03:43:50.657Z,24.70
2018-08-19T03:46:20.196Z,24.60
2018-08-19T03:48:49.526Z,24.60
2018-08-19T03:51:18.379Z,24.90
2018-08-19T03:53:47.496Z,24.90
2018-08-19T03:56:21.662Z,24.90
2018-08-19T03:58:51.759Z,24.90
2018-08-19T04:01:56.030Z,24.90
2018-08-19T04:04:24.823Z,24.70
2018-08-19T04:06:53.601Z,24.60
2018-08-19T04:09:22.480Z,24.50
2018-08-19T04:12:02.212Z,24.20
2018-08-19T04:14:30.900Z,24.30
2018-08-19T04:17:00.812Z,24.20
2018-08-19T04:19:30.055Z,24.20
2018-08-19T04:22:00.087Z,24.20
2018-08-19T04:24:29.230Z,24.30
2018-08-19T04:26:58.312Z,24.30
2018-08-19T04:29:27.952Z,24.40
2018-08-19T04:31:56.917Z,24.50
2018-08-19T04:34:25.899Z,24.50
2018-08-19T04:36:54.521Z,24.50
2018-08-19T04:39:23.380Z,24.60
2018-08-19T04:41:52.155Z,24.50
2018-08-19T04:44:21.059Z,24.60
2018-08-19T04:46:50.450Z,24.50
2018-08-19T04:49:19.196Z,24.60
2018-08-19T04:51:48.193Z,24.60
2018-08-19T04:54:17.153Z,24.60
2018-08-19T04:56:46.151Z,24.50
2018-08-19T04:59:15.127Z,24.60
2018-08-19T05:01:45.257Z,24.80
2018-08-19T05:04:14.025Z,24.70
2018-08-19T05:06:42.919Z,24.80
2018-08-19T05:09:11.424Z,24.80
2018-08-19T05:11:40.036Z,24.90
2018-08-19T05:14:08.703Z,25.10
2018-08-19T05:16:38.128Z,25.50
2018-08-19T05:19:07.161Z,25.70
2018-08-19T05:21:36.032Z,25.80
2018-08-19T05:24:05.269Z,26.00
2018-08-19T05:26:34.239Z,26.00
2018-08-19T05:29:09.116Z,26.30
2018-08-19T05:31:43.404Z,26.50
2018-08-19T05:34:25.081Z,26.50
2018-08-19T05:36:54.790Z,26.80
2018-08-19T05:39:23.610Z,26.90
2018-08-19T05:42:04.037Z,27.10
2018-08-19T05:44:35.909Z,27.20
2018-08-19T05:47:06.334Z,27.10
2018-08-19T05:49:40.482Z,27.30
2018-08-19T05:52:14.401Z,27.40
2018-08-19T05:54:48.765Z,27.40
2018-08-19T05:57:18.387Z,27.50
2018-08-19T05:59:49.114Z,27.60
2018-08-19T06:02:22.498Z,27.80
2018-08-19T06:04:51.184Z,27.90
2018-08-19T06:07:19.959Z,28.10
2018-08-19T06:09:48.736Z,28.10
2018-08-19T06:12:17.589Z,28.30
2018-08-19T06:14:46.446Z,28.40
2018-08-19T06:17:15.322Z,28.80
2018-08-19T06:19:44.141Z,29.60
2018-08-19T06:22:13.185Z,30.40
2018-08-19T06:24:42.176Z,31.00
2018-08-19T06:27:10.999Z,31.50
2018-08-19T06:29:50.791Z,31.80
2018-08-19T06:32:26.895Z,32.10
2018-08-19T06:34:55.804Z,31.90
2018-08-19T06:37:24.692Z,31.80
2018-08-19T06:39:53.424Z,31.80
2018-08-19T06:42:22.667Z,31.70
2018-08-19T06:44:51.751Z,31.70
2018-08-19T06:47:20.512Z,31.60
2018-08-19T06:49:55.066Z,31.90
2018-08-19T06:52:24.599Z,31.10
2018-08-19T06:54:53.710Z,31.60
2018-08-19T06:57:22.668Z,32.00
2018-08-19T06:59:51.956Z,32.20
2018-08-19T07:02:22.432Z,32.30
2018-08-19T07:04:51.490Z,32.60
2018-08-19T07:07:21.290Z,32.60
2018-08-19T07:09:50.012Z,32.70
2018-08-19T07:12:22.063Z,33.00
2018-08-19T07:14:51.161Z,32.90
2018-08-19T07:17:20.367Z,33.50
2018-08-19T07:19:49.140Z,33.90
2018-08-19T07:22:21.292Z,34.00
2018-08-19T07:24:50.190Z,34.10
2018-08-19T07:27:19.041Z,34.10
2018-08-19T07:29:47.949Z,33.90
2018-08-19T07:32:16.664Z,33.70
2018-08-19T07:34:45.563Z,33.60
2018-08-19T07:37:14.381Z,33.90
2018-08-19T07:39:54.071Z,34.10
2018-08-19T07:42:23.071Z,34.20
2018-08-19T07:44:51.949Z,34.20
2018-08-19T07:47:21.077Z,34.50
2018-08-19T07:49:49.933Z,33.60
2018-08-19T07:52:18.927Z,33.90
2018-08-19T07:54:49.186Z,34.20
2018-08-19T07:57:26.439Z,34.10
2018-08-19T07:59:55.245Z,33.90
2018-08-19T08:02:30.075Z,33.90
2018-08-19T08:04:58.911Z,33.90
2018-08-19T08:07:33.490Z,34.30
2018-08-19T08:10:03.859Z,34.20
2018-08-19T08:12:32.853Z,34.10
2018-08-19T08:15:03.431Z,34.80
2018-08-19T08:17:34.862Z,35.00
2018-08-19T08:20:04.399Z,34.60
2018-08-19T08:22:33.877Z,34.90
2018-08-19T08:25:02.660Z,35.10
2018-08-19T08:27:32.398Z,35.10
2018-08-19T08:30:08.560Z,34.90
2018-08-19T08:32:38.090Z,33.70
2018-08-19T08:35:07.779Z,33.90
2018-08-19T08:37:36.636Z,34.30
2018-08-19T08:40:11.157Z,34.40
2018-08-19T08:42:44.557Z,34.30
2018-08-19T08:45:14.617Z,34.20
2018-08-19T08:47:43.390Z,33.80
2018-08-19T08:50:13.000Z,34.10
2018-08-19T08:52:44.427Z,33.50
2018-08-19T08:55:13.686Z,32.90
2018-08-19T08:57:42.669Z,33.30
2018-08-19T09:00:12.716Z,33.20
2018-08-19T09:02:41.650Z,33.50
2018-08-19T09:05:11.687Z,33.50
2018-08-19T09:07:40.929Z,32.90
2018-08-19T09:10:12.568Z,33.20
2018-08-19T09:12:51.718Z,33.40
2018-08-19T09:15:20.460Z,33.10
2018-08-19T09:17:49.450Z,33.00
2018-08-19T09:20:18.239Z,33.10
2018-08-19T09:22:47.719Z,33.20
2018-08-19T09:25:16.484Z,33.40
2018-08-19T09:27:45.368Z,33.70
2018-08-19T09:30:27.986Z,34.30
2018-08-19T09:32:59.459Z,33.90
2018-08-19T09:35:29.506Z,33.70
2018-08-19T09:38:15.230Z,33.80
2018-08-19T09:40:44.208Z,34.00
2018-08-19T09:43:13.418Z,33.90
2018-08-19T09:45:42.648Z,33.90
2018-08-19T09:48:11.914Z,34.20
2018-08-19T09:50:41.520Z,34.40
2018-08-19T09:53:10.407Z,34.80
2018-08-19T09:55:44.285Z,34.90
2018-08-19T09:58:15.832Z,34.60
2018-08-19T10:00:50.172Z,34.30
2018-08-19T10:03:19.132Z,34.50
2018-08-19T10:05:47.880Z,35.10
2018-08-19T10:08:16.781Z,35.10
2018-08-19T10:10:45.790Z,34.90
2018-08-19T10:13:16.263Z,34.90
2018-08-19T10:15:45.170Z,34.70
2018-08-19T10:18:13.857Z,35.20
2018-08-19T10:20:42.714Z,35.30
2018-08-19T10:23:11.569Z,35.40
2018-08-19T10:25:40.425Z,35.70
2018-08-19T10:28:09.417Z,35.70
2018-08-19T10:30:46.060Z,35.50
2018-08-19T10:33:14.756Z,35.40
2018-08-19T10:35:43.559Z,35.20
2018-08-19T10:38:13.385Z,35.30
2018-08-19T10:40:42.463Z,35.30
2018-08-19T10:43:11.397Z,35.60
2018-08-19T10:45:42.605Z,35.90
2018-08-19T10:48:13.265Z,36.30
2018-08-19T10:50:42.126Z,36.40
2018-08-19T10:53:16.874Z,36.30
2018-08-19T10:55:46.991Z,36.60
2018-08-19T10:58:16.124Z,36.10
2018-08-19T11:00:44.954Z,36.10
2018-08-19T11:03:19.079Z,35.70
2018-08-19T11:05:49.091Z,35.60
2018-08-19T11:08:17.935Z,35.30
2018-08-19T11:10:47.080Z,35.50
2018-08-19T11:13:20.470Z,35.70
2018-08-19T11:15:52.800Z,36.00
2018-08-19T11:18:28.896Z,36.10
2018-08-19T11:21:21.242Z,36.30
2018-08-19T11:23:50.037Z,36.10
2018-08-19T11:26:18.768Z,36.30
2018-08-19T11:28:56.305Z,36.40
2018-08-19T11:31:33.228Z,36.20
2018-08-19T11:34:05.227Z,36.40
2018-08-19T11:36:39.378Z,36.60
2018-08-19T11:39:09.170Z,36.50
2018-08-19T11:41:37.875Z,36.90
2018-08-19T11:44:10.123Z,37.10
2018-08-19T11:46:39.113Z,37.20
2018-08-19T11:49:08.756Z,37.10
2018-08-19T11:51:48.915Z,37.30
2018-08-19T11:54:18.627Z,37.40
2018-08-19T11:56:54.957Z,37.30
2018-08-19T11:59:36.457Z,37.40
2018-08-19T12:02:07.014Z,37.80
2018-08-19T12:04:35.919Z,38.20
2018-08-19T12:07:04.851Z,37.90
2018-08-19T12:09:33.704Z,37.80
2018-08-19T12:12:02.678Z,37.40
2018-08-19T12:14:34.636Z,37.60
2018-08-19T12:17:08.353Z,37.40
2018-08-19T12:19:42.550Z,37.80
2018-08-19T12:22:11.426Z,37.40
2018-08-19T12:24:45.926Z,37.30
2018-08-19T12:27:16.786Z,37.20
2018-08-19T12:29:46.287Z,37.40
2018-08-19T12:32:25.102Z,37.50
2018-08-19T12:34:56.004Z,37.00
2018-08-19T12:37:25.821Z,36.50
2018-08-19T12:39:55.184Z,36.70
2018-08-19T12:42:31.242Z,37.10
2018-08-19T12:45:06.230Z,36.90
2018-08-19T12:47:35.459Z,36.50
2018-08-19T12:50:19.005Z,36.60
2018-08-19T12:52:48.703Z,36.50
2018-08-19T12:55:17.458Z,35.80
2018-08-19T12:57:49.625Z,35.90
2018-08-19T13:00:21.070Z,35.70
2018-08-19T13:02:51.094Z,35.80
2018-08-19T13:05:20.201Z,35.80
2018-08-19T13:07:49.187Z,35.80
2018-08-19T13:10:18.276Z,35.70
2018-08-19T13:12:55.872Z,35.60
2018-08-19T13:15:25.986Z,35.70
2018-08-19T13:18:00.046Z,35.40
2018-08-19T13:20:29.430Z,35.00
2018-08-19T13:23:03.298Z,35.10
2018-08-19T13:25:32.385Z,35.00
2018-08-19T13:28:01.190Z,34.40
2018-08-19T13:30:30.012Z,34.70
2018-08-19T13:32:59.681Z,34.70
2018-08-19T13:35:28.516Z,34.70
2018-08-19T13:37:57.223Z,34.50
2018-08-19T13:40:26.051Z,34.70
2018-08-19T13:42:54.834Z,34.80
2018-08-19T13:45:26.077Z,34.30
2018-08-19T13:47:54.890Z,34.60
2018-08-19T13:50:23.775Z,34.40
2018-08-19T13:52:52.754Z,34.40
2018-08-19T13:55:21.562Z,34.30
2018-08-19T13:57:50.529Z,34.10
2018-08-19T14:00:20.734Z,33.90
2018-08-19T14:02:49.973Z,33.70
2018-08-19T14:05:18.692Z,33.90
2018-08-19T14:07:47.421Z,33.60
2018-08-19T14:10:16.674Z,33.60
2018-08-19T14:12:45.583Z,33.90
2018-08-19T14:15:14.507Z,33.90
2018-08-19T14:17:43.483Z,34.10
2018-08-19T14:20:12.245Z,33.90
2018-08-19T14:22:41.128Z,33.70
2018-08-19T14:25:11.059Z,33.90
2018-08-19T14:27:39.982Z,33.90
2018-08-19T14:30:10.119Z,34.10
2018-08-19T14:32:41.882Z,34.00
2018-08-19T14:35:10.701Z,33.50
2018-08-19T14:37:39.469Z,33.70
2018-08-19T14:40:16.160Z,33.90
2018-08-19T14:42:45.315Z,33.90
2018-08-19T14:45:14.200Z,33.70
2018-08-19T14:47:43.000Z,33.70
2018-08-19T14:50:14.170Z,33.50
2018-08-19T14:52:43.215Z,33.80
2018-08-19T14:55:12.067Z,33.80
2018-08-19T14:57:40.935Z,34.00
2018-08-19T15:00:12.658Z,33.70
2018-08-19T15:02:41.730Z,33.40
2018-08-19T15:05:15.799Z,33.30
2018-08-19T15:07:44.989Z,33.50
2018-08-19T15:10:19.220Z,33.30
2018-08-19T15:12:47.965Z,33.60
2018-08-19T15:15:16.971Z,33.70
2018-08-19T15:17:56.596Z,33.70
2018-08-19T15:20:29.996Z,33.70
2018-08-19T15:23:16.190Z,33.70
2018-08-19T15:25:45.022Z,33.40
2018-08-19T15:28:14.107Z,33.60
2018-08-19T15:30:43.099Z,33.50
2018-08-19T15:33:12.910Z,33.50
2018-08-19T15:35:42.144Z,33.50
2018-08-19T15:38:11.391Z,33.30
2018-08-19T15:40:47.385Z,33.10
2018-08-19T15:43:16.321Z,33.00
2018-08-19T15:45:45.757Z,33.00
2018-08-19T15:48:14.514Z,32.80
2018-08-19T15:50:43.402Z,33.00
2018-08-19T15:53:12.331Z,33.00
2018-08-19T15:55:41.285Z,32.90
2018-08-19T15:58:10.087Z,33.00
2018-08-19T16:00:40.659Z,32.80
2018-08-19T16:03:10.474Z,32.70
2018-08-19T16:05:39.263Z,32.60
2018-08-19T16:08:08.231Z,32.70
2018-08-19T16:10:36.919Z,32.50
2018-08-19T16:13:07.991Z,32.60
2018-08-19T16:15:37.223Z,32.50
2018-08-19T16:18:06.255Z,32.70
2018-08-19T16:20:35.101Z,32.30
2018-08-19T16:23:03.987Z,32.40
2018-08-19T16:25:33.032Z,32.40
2018-08-19T16:28:02.745Z,32.40
2018-08-19T16:30:31.634Z,32.50
2018-08-19T16:33:00.427Z,32.30
2018-08-19T16:35:29.296Z,32.20
2018-08-19T16:37:58.239Z,32.00
2018-08-19T16:40:27.052Z,31.80
2018-08-19T16:42:56.240Z,31.90
2018-08-19T16:45:25.131Z,31.80
2018-08-19T16:47:53.920Z,31.90
2018-08-19T16:50:22.903Z,31.80
2018-08-19T16:52:51.800Z,31.60
2018-08-19T16:55:20.503Z,31.70
2018-08-19T16:57:49.281Z,31.70
2018-08-19T17:00:18.008Z,31.60
2018-08-19T17:02:46.911Z,31.60
2018-08-19T17:05:31.357Z,31.50
2018-08-19T17:08:00.219Z,31.30
2018-08-19T17:10:29.544Z,31.20
2018-08-19T17:12:58.624Z,31.50
2018-08-19T17:15:27.816Z,31.50
2018-08-19T17:17:57.128Z,31.50
2018-08-19T17:20:26.079Z,31.50
2018-08-19T17:22:54.900Z,31.50
2018-08-19T17:25:23.588Z,31.50
2018-08-19T17:28:00.021Z,31.50
2018-08-19T17:30:29.055Z,31.30
2018-08-19T17:33:03.298Z,31.10
2018-08-19T17:35:32.039Z,30.80
2018-08-19T17:38:00.910Z,30.50
2018-08-19T17:40:31.600Z,30.40
2018-08-19T17:43:01.331Z,30.60
2018-08-19T17:45:30.070Z,30.50
2018-08-19T17:47:59.129Z,30.30
2018-08-19T17:50:28.747Z,30.20
2018-08-19T17:52:58.693Z,30.10
2018-08-19T17:55:27.578Z,30.00
2018-08-19T17:57:57.992Z,29.90
2018-08-19T18:00:26.706Z,30.10
2018-08-19T18:02:55.683Z,30.00
2018-08-19T18:05:24.423Z,29.70
2018-08-19T18:07:54.244Z,29.70
2018-08-19T18:10:23.035Z,29.60
2018-08-19T18:12:52.240Z,29.70
2018-08-19T18:15:20.922Z,29.70
2018-08-19T18:17:58.321Z,29.60
2018-08-19T18:20:30.357Z,29.60
2018-08-19T18:22:59.125Z,29.80
2018-08-19T18:25:27.969Z,29.80
2018-08-19T18:27:56.614Z,29.60
2018-08-19T18:30:26.556Z,29.50
2018-08-19T18:32:55.370Z,29.50
2018-08-19T18:35:24.125Z,29.60
2018-08-19T18:37:52.863Z,29.70
2018-08-19T18:40:31.240Z,29.70
2018-08-19T18:43:00.108Z,29.40
2018-08-19T18:45:29.148Z,29.60
2018-08-19T18:47:59.740Z,29.60
2018-08-19T18:50:28.635Z,29.90
2018-08-19T18:52:57.257Z,29.80
2018-08-19T18:55:27.349Z,29.80
2018-08-19T18:57:58.366Z,29.80
2018-08-19T19:00:29.478Z,29.80
2018-08-19T19:03:01.690Z,29.90
2018-08-19T19:05:42.426Z,30.00
2018-08-19T19:08:17.556Z,29.80
2018-08-19T19:11:02.244Z,29.80
2018-08-19T19:13:34.573Z,29.80
2018-08-19T19:16:06.723Z,29.80
2018-08-19T19:18:38.346Z,29.80
2018-08-19T19:21:13.210Z,29.80
2018-08-19T19:23:46.338Z,29.80
2018-08-19T19:26:17.843Z,29.80
2018-08-19T19:28:48.981Z,29.70
2018-08-19T19:31:21.120Z,29.60
2018-08-19T19:33:52.888Z,29.60
2018-08-19T19:36:24.655Z,29.60
2018-08-19T19:38:58.519Z,29.50
2018-08-19T19:41:32.290Z,29.60
2018-08-19T19:44:21.815Z,29.50
2018-08-19T19:46:53.656Z,29.40
2018-08-19T19:49:25.214Z,29.50
2018-08-19T19:52:01.369Z,29.50
2018-08-19T19:54:33.831Z,29.30
2018-08-19T19:57:05.108Z,29.10
2018-08-19T19:59:36.160Z,29.10
2018-08-19T20:02:07.395Z,29.20
2018-08-19T20:04:36.449Z,29.20
2018-08-19T20:07:05.350Z,29.30
2018-08-19T20:09:36.067Z,29.20
2018-08-19T20:12:06.125Z,29.20
2018-08-19T20:14:39.421Z,29.20
2018-08-19T20:17:08.342Z,29.20
2018-08-19T20:19:37.129Z,29.20
2018-08-19T20:22:06.651Z,29.20
2018-08-19T20:24:35.767Z,29.10
2018-08-19T20:27:04.506Z,29.00
2018-08-19T20:29:33.376Z,29.10
2018-08-19T20:32:02.474Z,29.00
2018-08-19T20:34:31.479Z,28.90
2018-08-19T20:37:00.260Z,28.60
2018-08-19T20:39:28.945Z,28.60
2018-08-19T20:41:57.859Z,28.70
2018-08-19T20:44:26.652Z,28.70
2018-08-19T20:46:56.257Z,28.80
2018-08-19T20:49:26.218Z,28.60
2018-08-19T20:51:55.641Z,28.50
2018-08-19T20:54:24.643Z,28.50
2018-08-19T20:56:53.732Z,28.60
2018-08-19T20:59:27.896Z,28.60
2018-08-19T21:01:56.834Z,28.50
2018-08-19T21:04:25.722Z,28.50
2018-08-19T21:06:54.584Z,28.60
2018-08-19T21:09:23.518Z,28.60
2018-08-19T21:11:52.191Z,28.70
2018-08-19T21:14:20.820Z,28.50
2018-08-19T21:16:49.352Z,28.30
2018-08-19T21:19:17.786Z,28.30
2018-08-19T21:21:46.308Z,28.30
2018-08-19T21:24:14.731Z,28.20
2018-08-19T21:26:47.782Z,28.10
2018-08-19T21:29:16.396Z,28.20
2018-08-19T21:31:44.843Z,28.20
2018-08-19T21:34:13.535Z,28.20
2018-08-19T21:36:42.405Z,28.20
2018-08-19T21:39:11.064Z,28.20
2018-08-19T21:41:46.398Z,28.20
2018-08-19T21:44:15.699Z,28.30
2018-08-19T21:46:44.447Z,28.30
2018-08-19T21:49:13.742Z,28.40
2018-08-19T21:51:42.927Z,28.40
2018-08-19T21:54:13.020Z,28.50
2018-08-19T21:56:42.094Z,28.50
2018-08-19T21:59:17.307Z,28.50
2018-08-19T22:01:50.787Z,28.60
2018-08-19T22:04:20.798Z,28.50
2018-08-19T22:06:49.752Z,28.50
2018-08-19T22:09:29.333Z,28.40
2018-08-19T22:11:59.278Z,28.30
2018-08-19T22:14:28.370Z,28.30
2018-08-19T22:17:02.758Z,28.30
2018-08-19T22:19:31.904Z,28.30
2018-08-19T22:22:00.742Z,28.30
2018-08-19T22:24:29.480Z,28.30
2018-08-19T22:27:05.147Z,28.30
2018-08-19T22:29:34.075Z,28.20
2018-08-19T22:32:02.961Z,28.10
2018-08-19T22:34:31.555Z,28.10
2018-08-19T22:37:00.549Z,28.10
2018-08-19T22:39:29.523Z,28.10
2018-08-19T22:41:58.291Z,28.10
2018-08-19T22:44:27.016Z,28.00
2018-08-19T22:46:56.043Z,28.00
2018-08-19T22:49:27.660Z,28.00
2018-08-19T22:52:08.948Z,28.00
2018-08-19T22:54:37.924Z,28.00
2018-08-19T22:57:06.612Z,28.10
2018-08-19T22:59:35.483Z,28.00
2018-08-19T23:02:04.359Z,27.90
2018-08-19T23:04:33.237Z,27.90
2018-08-19T23:07:02.228Z,27.90
2018-08-19T23:09:31.264Z,27.90
2018-08-19T23:12:00.163Z,27.90
2018-08-19T23:14:39.897Z,27.90
2018-08-19T23:17:09.148Z,27.90
2018-08-19T23:19:37.883Z,27.90
2018-08-19T23:22:06.825Z,27.90
2018-08-19T23:24:35.653Z,27.80
2018-08-19T23:27:04.423Z,27.90
2018-08-19T23:29:33.263Z,27.80
2018-08-19T23:32:02.243Z,27.80
2018-08-19T23:34:31.283Z,27.70
2018-08-19T23:37:00.124Z,27.30
2018-08-19T23:39:28.909Z,27.20
2018-08-19T23:41:57.844Z,27.00
2018-08-19T23:44:26.701Z,27.00
2018-08-19T23:46:55.492Z,26.80
2018-08-19T23:49:24.315Z,26.70
2018-08-19T23:51:53.240Z,26.70
2018-08-19T23:54:22.090Z,26.90
2018-08-19T23:56:51.145Z,26.60
2018-08-19T23:59:26.476Z,26.50
